Viola, Minnesota
Current Conditions -  °F | °C
As of 5:33 PM on Saturday 20 Dec 2014 (Local Time) from K9MN Reporting Station
Overcast Overcast  
Wind Chill: 24°   Ceiling: 1100
Heat Index: 31°   Visibility: 10mi
Dew Point: 28°   Wind: 8mph
Humidity: 90%   Direction: 180°S
Pressure: 30.13"   Gusts: NA
Location:  44.0209°N, 92.2585°W
Report Text: K9MN 202333Z AUTO 18007KT 10SM OVC011 00/M02 A3013 RMK AO1 T10051020
Loading
Personal Weather Stations






























Interactive Weather Map New forecast layout! Learn more

10-Day Weather Forecast

Advertisements
Track Severe Weather on mobile